Follow

*checks watch*

Oh right, right, NYC mayoral debate is happening now isn't it

· · Web · 2 · 1 · 3

@gamehawk Hah. You piqued my curiosity :-) The ASOS is an aviation system, and its official output is called a METAR. Somebody... parsed something wrong? The correct METAR from the archive is "METAR KACY 102254Z 08013G20KT 10SM OVC017 20/13 A3000 RMK AO2 SLP158 T02000133=" - the 10th of the month at 22:54 UTC, winds from 080deg at 13 gusting to 20 knots.

@jgoerzen Yeah, NWS Mount Holly quote-tweeted it saying they didn't know yet why the source was occasionally throwing these wild responses (I think they said it had three of them). Implied it wasn't just the Twitter bot, but the source data itself, but I could be wrong.

@gamehawk I found another source for METAR history. ogimet.com/display_metars2.php There is a SPECI also at 2254Z that looks... corrupt. It looks like it got combined with some other airport's data or something.

Sign in to participate in the conversation
Mastodon

Server run by the main developers of the project 🐘 It is not focused on any particular niche interest - everyone is welcome as long as you follow our code of conduct!